AirNav   MODERNIZE NOT PRIVATIZE ATC
 
 283 users online  

49PA Gap View Airport
Stone Church, Pennsylvania, USA

GOING TO STONE CHURCH?


FAA INFORMATION EFFECTIVE 20 JULY 2017

Location

FAA Identifier: 49PA
Lat/Long: 40-51-33.3480N / 075-08-01.6350W
40-51.555800N / 075-08.027250W
40.8592633 / -75.1337875
(estimated)
Elevation: 780 ft. / 238 m (estimated)
Variation: 12W (1985)
From city: 1 mile W of STONE CHURCH, PA
Time zone: UTC -4 (UTC -5 during Standard Time)
Zip code: 18013

Airport Operations

Airport use: Private use. Permission required prior to landing
Activation date: 01/1974
Control tower: no
ARTCC: NEW YORK CENTER
FSS: WILLIAMSPORT FLIGHT SERVICE STATION
Attendance: CONTINUOUS
Wind indicator: yes
Segmented circle: no

Airport Communications

WX ASOS at ABE (19 nm SW): PHONE 610-266-3579

Nearby radio navigation aids

VOR radial/distance  VOR name  Freq  Var
STWr247/14.5STILLWATER VOR/DME109.6011W
BWZr295/14.6BROADWAY VOR/DME114.2011W
FJCr071/16.6ALLENTOWN VORTAC117.5010W
SBJr323/24.3SOLBERG VOR/DME112.9010W
SAXr256/29.7SPARTA VORTAC115.7011W
ETXr065/30.1EAST TEXAS VOR/DME110.2009W
LVZr145/35.3WILKES-BARRE VORTAC111.6010W
ARDr354/37.8YARDLEY VOR/DME108.2010W

 
NDB name  Hdg/Dist  Freq  Var  ID
CHATHAM296/32.825413WCAT -.-. .- -

Airport Services

Airframe service: NONE
Powerplant service: NONE

Runway Information

Runway NW/SE

Dimensions: 1800 x 100 ft. / 549 x 30 m
Surface: turf
RUNWAY NW  RUNWAY SE
Traffic pattern: leftleft
Obstructions: plinenone

Airport Ownership and Management from official FAA records

Ownership: Privately-owned
Owner: WILLIAM E. STANDING
GAP VIEW AIRPORT, PO BOX 460
MOUNT BETHEL, PA 18343
Phone 610-745-4869
Manager: WILLIAM E. STANDING
GAP VIEW AIRPORT, PO BOX 460
MOUNT BETHEL, PA 18343
Phone 610-745-4869

Airport Operational Statistics

Aircraft based on the field: 2
Single engine airplanes: 2
    

Instrument Procedures

There are no published instrument procedures at 49PA.

Some nearby airports with instrument procedures:

N43 - Braden Airpark (9 nm SW)
1N7 - Blairstown Airport (9 nm NE)
N53 - Stroudsburg-Pocono Airport (11 nm N)
N85 - Alexandria Airport (17 nm S)
KABE - Lehigh Valley International Airport (19 nm SW)
N40 - Sky Manor Airport (19 nm S)
 
Loc | Ops | Rwys | IFR | FBO | Links
Com | Nav | Svcs | Stats | Notes


 
Area around 49PA (Gap View Airport)
 
Road maps at: MapQuest Bing Google
 
Aerial photo
No photo
 
Sectional chart

 
Airport distance calculator
Flying to Gap View Airport? Find the distance to fly.

From to 49PA

Sunrise and sunset
Times for 28-Jul-2017
 Local
(UTC-4)
 Zulu
(UTC)
Morning civil twilight05:2309:23
Sunrise05:5409:54
Sunset20:2000:20
Evening civil twilight20:5100:51

Current date and time
Zulu (UTC)  28-Jul-2017 08:56:20
Local (UTC-4)  28-Jul-2017 04:56:20
 
METAR
KABE 
19nm SW 
280816Z 00000KT 1/4SM FG VV003 19/17 A2985 RMK AO2 T01890172
KMPO 
20nm NW 
280828Z AUTO 00000KT 1SM BR VV002 16/16 A2991 RMK AO2 T01560156
K12N 
20nm NE 
280754Z AUTO 00000KT 18/17 A2987 RMK AO1 SLP109 T01780172
KXLL 
24nm SW 
280835Z AUTO 00000KT 3SM BR OVC004 21/21 A2987 RMK AO2
KSMQ 
26nm SE 
ASOS 120.60 908-722-2139
280830Z AUTO 32003KT 4SM BR FEW013 19/18 A2984 RMK AO2 T01890183
KUKT 
28nm SW 
280835Z AUTO 00000KT 5SM OVC002 20/20 A2987 RMK AO1
KCKZ 
29nm S 
280835Z AUTO 00000KT 3SM BR OVC003 20/20 A2987 RMK AO2
KFWN 
31nm NE 
280753Z AUTO 00000KT 1/4SM FG VV002 19/19 A2986 RMK AO2 SLP110 T01890189
KDYL 
32nm S 
280754Z AUTO A2985 RMK AO2 SLPNO PWINO $
KMMU 
33nm E 
280835Z AUTO 00000KT M1/4SM FG OVC002 17/17 A2986 RMK AO2
TAF
KABE 
19nm SW 
280559Z 2806/2906 00000KT 1SM BR SCT025 TEMPO 2807/2811 1/2SM FG FM281200 00000KT 3SM BR SCT250 FM281300 05004KT P6SM SCT035 BKN250 FM282000 07005KT P6SM VCSH OVC035 PROB30 2822/2902 5SM -TSRA OVC030CB FM290200 05005KT 4SM -SHRA SCT015 OVC050 PROB30 2902/2906 2SM TSRA OVC030CB
NOTAMs
Click for the latest NOTAMs
NOTAMs are issued by the DoD/FAA and will open in a separate window not controlled by AirNav.

 

 
 

Would you like to see your business listed on this page?

 If your business provides an interesting product or service to pilots, flight crews, aircraft, or users of the Gap View Airport, you should consider listing it here.  To start the listing process, click on the button below
 
Add a business
 

Other Pages about Gap View Airport

Update a link
 
Copyright © AirNav, LLC. All rights reserved. Privacy Policy  Contact